WetterOnline ( http://www.wetteronline.de )

Wetter aktuell Bollendorf

Aktuelles Wetter: Deuselbach (483m)

6-stündlich | Neueste Meldungen
Ortszeit Temperatur Wetter
Di, 16.10. 14:00 21.6° C wolkig
Di, 16.10. 8:00 13.1° C wolkenlos
Di, 16.10. 2:00 14.1° C wolkenlos
Mo, 15.10. 20:00 16.1° C leicht bewölkt
Mo, 15.10. 14:00 22.1° C wolkenlos
Mo, 15.10. 8:00 14.3° C wolkenlos
Mo, 15.10. 2:00 16.0° C leicht bewölkt
So, 14.10. 20:00 16.7° C wolkenlos
Ortszeit Temperatur Wetter
Di, 16.10. 15:30 21.5° C bedeckt
Di, 16.10. 15:20 21.5° C bedeckt
Di, 16.10. 15:10 21.3° C bedeckt
Di, 16.10. 15:00 21.1° C bedeckt
Di, 16.10. 14:50 21.1° C bedeckt
Di, 16.10. 14:40 21.5° C bedeckt
Di, 16.10. 14:30 21.5° C bedeckt
Di, 16.10. 14:00 21.6° C wolkig
Di, 16.10. 13:30 21.7° C bedeckt
Di, 16.10. 13:00 20.5° C leicht bewölkt
Di, 16.10. 12:30 21.0° C wolkig
Ortszeit Relative Feuchte Sichtweite
Di, 16.10. 14:00 34% 50 km
Di, 16.10. 8:00 67% 50 km
Di, 16.10. 2:00 64% 45 km
Mo, 15.10. 20:00 57% 40 km
Mo, 15.10. 14:00 34% 50 km
Mo, 15.10. 8:00 54% 50 km
Mo, 15.10. 2:00 52% 65 km
So, 14.10. 20:00 60% >70 km
Ortszeit Relative Feuchte Sichtweite
Di, 16.10. 15:30 36% 40 km
Di, 16.10. 15:20 36% -
Di, 16.10. 15:10 36% -
Di, 16.10. 15:00 35% 45 km
Di, 16.10. 14:50 35% -
Di, 16.10. 14:40 35% -
Di, 16.10. 14:30 34% >70 km
Di, 16.10. 14:00 34% 50 km
Di, 16.10. 13:30 34% 55 km
Di, 16.10. 13:00 38% 55 km
Di, 16.10. 12:30 40% -
Ortszeit Niederschlagsmenge Niederschlagsart
Di, 16.10. 14:00 0.0 l/m2 in 6 Std. -
Di, 16.10. 8:00 0.0 l/m2 in 12 Std. -
Di, 16.10. 2:00 0.0 l/m2 in 6 Std. -
Mo, 15.10. 20:00 0.0 l/m2 in 12 Std. -
Mo, 15.10. 14:00 0.0 l/m2 in 6 Std. -
Mo, 15.10. 8:00 0.0 l/m2 in 12 Std. -
Mo, 15.10. 2:00 0.0 l/m2 in 6 Std. -
So, 14.10. 20:00 0.0 l/m2 in 12 Std. -
Ortszeit Niederschlagsmenge Niederschlagsart
Di, 16.10. 15:30 0.0 l/m2 in 1 Std. -
Di, 16.10. 15:20 keine Meldung -
Di, 16.10. 15:10 keine Meldung -
Di, 16.10. 15:00 0.0 l/m2 in 1 Std. -
Di, 16.10. 14:50 keine Meldung -
Di, 16.10. 14:40 keine Meldung -
Di, 16.10. 14:30 0.0 l/m2 in 1 Std. -
Di, 16.10. 14:00 0.0 l/m2 in 1 Std. -
Di, 16.10. 13:30 0.0 l/m2 in 1 Std. -
Di, 16.10. 13:00 0.0 l/m2 in 1 Std. -
Di, 16.10. 12:30 0.0 l/m2 in 1 Std. -
Ortszeit Stärke Spitze Richtung
km/h Bft. km/h Grad Sektor
Di, 16.10. 14:00 17 3 26 80° O
Di, 16.10. 8:00 7 2 11 120° SO
Di, 16.10. 2:00 6 1 13 90° O
Mo, 15.10. 20:00 11 2 18 150° SO
Mo, 15.10. 14:00 7 2 18 300° NW
Mo, 15.10. 8:00 4 1 14 130° SO
Mo, 15.10. 2:00 9 2 19 200° S
So, 14.10. 20:00 11 2 43 170° S
Ortszeit Stärke Spitze Richtung
km/h Bft. km/h Grad Sektor
Di, 16.10. 15:30 7 2 18 100° O
Di, 16.10. 15:20 7 2 - 100° O
Di, 16.10. 15:10 11 2 - 110° O
Di, 16.10. 15:00 17 3 24 110° O
Di, 16.10. 14:50 17 3 - 110° O
Di, 16.10. 14:40 13 3 - 100° O
Di, 16.10. 14:30 14 3 25 100° O
Di, 16.10. 14:00 17 3 26 80° O
Di, 16.10. 13:30 17 3 26 110° O
Di, 16.10. 13:00 14 3 25 80° O
Di, 16.10. 12:30 15 3 24 90° O
Ortszeit Untergrenze Bedeckung Gattung
total tief tief mittel hoch
Di, 16.10. 14:00 6000 m 8/8 8/8 - - -
Di, 16.10. 8:00 - 0/8 0/8 - - -
Di, 16.10. 2:00 - 0/8 0/8 - - -
Mo, 15.10. 20:00 9000 m 5/8 0/8 - - -
Mo, 15.10. 14:00 - 0/8 0/8 - - -
Mo, 15.10. 8:00 - 0/8 0/8 - - -
Mo, 15.10. 2:00 2700 m 2/8 2/8 - - -
So, 14.10. 20:00 - 0/8 0/8 - - -
Ortszeit Bedeckungsgrad in Achtel und Wolkenuntergrenze
Di, 16.10. 15:30 8(5400m) 8(7200m)
Di, 16.10. 15:20 8(5400m) 8(7200m)
Di, 16.10. 15:10 8(5400m) 8(7200m)
Di, 16.10. 15:00 5(5400m) 7(6000m) 8(6900m)
Di, 16.10. 14:50 5(5400m) 7(6000m) 8(6900m)
Di, 16.10. 14:40 7(5700m) 7(6300m) 8(6900m)
Di, 16.10. 14:30 7(5700m) 8(6300m) 8(6900m)
Di, 16.10. 14:00 6(6000m) 8(6900m) 8(7500m)
Di, 16.10. 13:30 8(6900m) 8(7500m)
Di, 16.10. 13:00 7(7500m) 7(7500m)
Di, 16.10. 12:30 8(7500m)
Ortszeit Luftdruck NN (hPa) Tendenz (hPa in 3 Std.)
Di, 16.10. 14:00 1018 0,0
Di, 16.10. 8:00 1018 + 0,8
Di, 16.10. 2:00 1017 + 0,3
Mo, 15.10. 20:00 1015 + 1,2
Mo, 15.10. 14:00 1013 - 0,2
Mo, 15.10. 8:00 1013 + 0,7
Mo, 15.10. 2:00 1012 + 0,2
So, 14.10. 20:00 1011 + 0,3
Ortszeit Luftdruck NN (hPa) Tendenz (hPa in 3 Std.)
Di, 16.10. 15:30 1018 - 0,2
Di, 16.10. 15:20 1018 keine Meldung
Di, 16.10. 15:10 1018 keine Meldung
Di, 16.10. 15:00 1018 - 0,1
Di, 16.10. 14:50 1018 keine Meldung
Di, 16.10. 14:40 1018 keine Meldung
Di, 16.10. 14:30 1018 + 0,1
Di, 16.10. 14:00 1018 0,0
Di, 16.10. 13:30 1018 0,0
Di, 16.10. 13:00 1018 + 0,1
Di, 16.10. 12:30 1018 + 0,3
Ortszeit Schneehöhe (cm)
Di, 16.10. 14:00 0
Di, 16.10. 8:00 0
Di, 16.10. 2:00 0
Mo, 15.10. 20:00 0
Mo, 15.10. 14:00 0
Mo, 15.10. 8:00 0
Mo, 15.10. 2:00 0
So, 14.10. 20:00 0
Ortszeit Schneehöhe (cm)
Di, 16.10. 15:30 0
Di, 16.10. 15:20 0
Di, 16.10. 15:10 0
Di, 16.10. 15:00 0
Di, 16.10. 14:50 0
Di, 16.10. 14:40 0
Di, 16.10. 14:30 0
Di, 16.10. 14:00 0
Di, 16.10. 13:30 0
Di, 16.10. 13:00 0
Di, 16.10. 12:30 0
Link zu dieser Seite / Seite empfehlen

Das Wetter in ...